createdAt,value
2024-01-12T00:02:46.096Z,-5.27
2024-01-12T00:07:49.016Z,-5.33
2024-01-12T00:12:52.241Z,-5.40
2024-01-12T00:17:56.501Z,-5.40
2024-01-12T00:22:59.669Z,-5.50
2024-01-12T00:28:02.595Z,-5.50
2024-01-12T00:33:07.484Z,-5.52
2024-01-12T00:38:10.387Z,-5.65
2024-01-12T00:43:13.310Z,-5.66
2024-01-12T00:48:17.829Z,-5.65
2024-01-12T00:53:21.364Z,-5.70
2024-01-12T00:58:24.306Z,-5.73
2024-01-12T01:03:28.548Z,-5.88
2024-01-12T01:08:31.805Z,-5.72
2024-01-12T01:13:37.103Z,-5.58
2024-01-12T01:18:41.490Z,-5.45
2024-01-12T01:23:47.050Z,-5.34
2024-01-12T01:28:49.904Z,-5.21
2024-01-12T01:33:54.361Z,-5.11
2024-01-12T01:38:57.374Z,-5.01
2024-01-12T01:44:00.397Z,-4.92
2024-01-12T01:49:04.778Z,-4.89
2024-01-12T01:54:08.094Z,-4.84
2024-01-12T01:59:11.685Z,-4.83
2024-01-12T02:04:17.141Z,-4.81
2024-01-12T02:09:20.722Z,-4.89
2024-01-12T02:14:23.751Z,-4.95
2024-01-12T02:19:28.258Z,-4.99
2024-01-12T02:24:35.450Z,-5.06
2024-01-12T02:29:38.471Z,-5.10
2024-01-12T02:34:41.389Z,-5.16
2024-01-12T02:39:45.693Z,-5.24
2024-01-12T02:44:48.692Z,-5.34
2024-01-12T02:49:51.875Z,-5.43
2024-01-12T02:54:56.297Z,-5.49
2024-01-12T02:59:59.655Z,-5.54
2024-01-12T03:05:03.038Z,-5.57
2024-01-12T03:10:08.088Z,-5.59
2024-01-12T03:15:11.922Z,-5.61
2024-01-12T03:20:16.030Z,-5.72
2024-01-12T03:25:20.292Z,-5.81
2024-01-12T03:30:23.361Z,-5.78
2024-01-12T03:35:26.307Z,-5.91
2024-01-12T03:40:31.702Z,-5.78
2024-01-12T03:45:34.800Z,-5.72
2024-01-12T03:50:38.809Z,-5.66
2024-01-12T03:55:44.958Z,-5.55
2024-01-12T04:00:48.006Z,-5.50
2024-01-12T04:05:51.282Z,-5.43
2024-01-12T04:10:55.727Z,-5.36
2024-01-12T04:15:58.737Z,-5.24
2024-01-12T04:21:01.952Z,-5.13
2024-01-12T04:26:07.120Z,-5.05
2024-01-12T04:31:10.539Z,-4.97
2024-01-12T04:36:14.300Z,-4.93
2024-01-12T04:41:19.136Z,-4.81
2024-01-12T04:46:22.841Z,-4.76
2024-01-12T04:51:25.859Z,-4.66
2024-01-12T04:56:30.267Z,-4.57
2024-01-12T05:01:33.289Z,-4.48
2024-01-12T05:06:36.398Z,-4.40
2024-01-12T05:11:40.915Z,-4.37
2024-01-12T05:16:44.037Z,-4.32
2024-01-12T05:21:47.401Z,-4.22
2024-01-12T05:26:52.061Z,-4.12
2024-01-12T05:31:55.036Z,-4.08
2024-01-12T05:36:58.419Z,-4.01
2024-01-12T05:42:03.322Z,-3.89
2024-01-12T05:47:07.814Z,-3.82
2024-01-12T05:52:10.875Z,-3.75
2024-01-12T05:57:15.307Z,-3.66
2024-01-12T06:02:18.431Z,-3.58
2024-01-12T06:07:21.536Z,-3.49
2024-01-12T06:12:27.494Z,-3.41
2024-01-12T06:17:30.974Z,-3.34
2024-01-12T06:22:33.911Z,-3.29
2024-01-12T06:27:39.098Z,-3.24
2024-01-12T06:32:42.165Z,-3.18
2024-01-12T06:37:45.692Z,-3.13
2024-01-12T06:42:50.030Z,-3.08
2024-01-12T06:47:55.083Z,-3.02
2024-01-12T06:52:58.814Z,-2.98
2024-01-12T06:58:03.151Z,-2.93
2024-01-12T07:03:07.475Z,-2.89
2024-01-12T07:08:11.377Z,-2.83
2024-01-12T07:13:16.387Z,-2.79
2024-01-12T07:18:19.561Z,-2.83
2024-01-12T07:23:22.920Z,-2.78
2024-01-12T07:28:27.706Z,-2.72
2024-01-12T07:33:30.862Z,-2.65
2024-01-12T07:38:35.225Z,-2.62
2024-01-12T07:43:41.505Z,-2.59
2024-01-12T07:48:45.028Z,-2.52
2024-01-12T07:53:49.326Z,-2.46
2024-01-12T07:58:53.573Z,-2.40
2024-01-12T08:03:56.481Z,-2.34
2024-01-12T08:08:59.443Z,-2.30
2024-01-12T08:14:04.550Z,-2.24
2024-01-12T08:19:08.487Z,-2.20
2024-01-12T08:24:11.424Z,-2.10
2024-01-12T08:29:15.965Z,-2.05
2024-01-12T08:34:19.123Z,-2.01
2024-01-12T08:39:22.272Z,-1.95
2024-01-12T08:44:28.290Z,-1.91
2024-01-12T08:49:31.660Z,-1.83
2024-01-12T08:54:34.812Z,-1.76
2024-01-12T08:59:41.275Z,-1.71
2024-01-12T09:04:46.221Z,-1.64
2024-01-12T09:09:50.268Z,-1.58
2024-01-12T09:14:56.110Z,-1.50
2024-01-12T09:20:00.647Z,-1.45
2024-01-12T09:25:04.447Z,-1.44
2024-01-12T09:30:11.148Z,-1.31
2024-01-12T09:35:14.091Z,-1.30
2024-01-12T09:40:18.837Z,-1.20
2024-01-12T09:45:26.114Z,-1.18
2024-01-12T09:50:29.147Z,-1.23
2024-01-12T09:55:32.189Z,-1.13
2024-01-12T10:00:38.762Z,-1.20
2024-01-12T10:05:43.389Z,-1.09
2024-01-12T10:10:46.333Z,-0.99
2024-01-12T10:15:50.647Z,-1.00
2024-01-12T10:20:53.969Z,-0.98
2024-01-12T10:26:01.364Z,-0.94
2024-01-12T10:31:08.545Z,-1.02
2024-01-12T10:36:14.716Z,-0.98
2024-01-12T10:41:23.581Z,-0.96
2024-01-12T10:46:35.069Z,-0.87
2024-01-12T10:51:40.695Z,-0.86
2024-01-12T10:56:44.077Z,-0.85
2024-01-12T11:01:49.462Z,-0.85
2024-01-12T11:06:59.736Z,-0.84
2024-01-12T11:12:08.968Z,-0.90
2024-01-12T11:17:15.161Z,-1.03
2024-01-12T11:22:18.263Z,-0.93
2024-01-12T11:27:21.261Z,-0.93
2024-01-12T11:32:26.073Z,-0.87
2024-01-12T11:37:29.377Z,-0.83
2024-01-12T11:42:33.507Z,-0.83
2024-01-12T11:47:39.243Z,-0.81
2024-01-12T11:52:43.650Z,-0.77
2024-01-12T11:57:48.365Z,-0.81
2024-01-12T12:02:55.974Z,-0.84
2024-01-12T12:08:01.180Z,-0.93
2024-01-12T12:13:04.750Z,-0.90
2024-01-12T12:18:09.637Z,-0.73
2024-01-12T12:23:12.868Z,-0.74
2024-01-12T12:28:16.724Z,-0.89
2024-01-12T12:33:25.497Z,-0.80
2024-01-12T12:38:28.826Z,-0.80
2024-01-12T12:43:31.830Z,-0.79
2024-01-12T12:48:36.410Z,-0.96
2024-01-12T12:53:39.771Z,-0.94
2024-01-12T12:58:42.732Z,-1.07
2024-01-12T13:03:47.647Z,-1.10
2024-01-12T13:08:51.980Z,-1.01
2024-01-12T13:13:54.907Z,-1.00
2024-01-12T13:19:10.837Z,-1.00
2024-01-12T13:24:22.450Z,-1.03
2024-01-12T13:29:25.552Z,-0.87
2024-01-12T13:34:30.729Z,-0.85
2024-01-12T13:39:34.475Z,-0.93
2024-01-12T13:44:38.166Z,-0.96
2024-01-12T13:49:43.086Z,-0.97
2024-01-12T13:54:49.579Z,-1.01
2024-01-12T13:59:52.667Z,-1.07
2024-01-12T14:05:05.675Z,-1.07
2024-01-12T14:10:17.230Z,-1.18
2024-01-12T14:15:20.247Z,-1.17
2024-01-12T14:20:27.278Z,-1.17
2024-01-12T14:25:30.910Z,-1.17
2024-01-12T14:30:34.473Z,-1.17
2024-01-12T14:35:42.626Z,-1.20
2024-01-12T14:40:46.362Z,-1.21
2024-01-12T14:45:49.333Z,-1.23
2024-01-12T14:50:55.603Z,-1.26
2024-01-12T14:56:00.540Z,-1.26
2024-01-12T15:01:04.083Z,-1.25
2024-01-12T15:06:08.912Z,-1.21
2024-01-12T15:11:12.028Z,-1.24
2024-01-12T15:16:15.706Z,-1.20
2024-01-12T15:21:20.150Z,-1.19
2024-01-12T15:26:23.075Z,-1.10
2024-01-12T15:31:26.146Z,-1.13
2024-01-12T15:36:30.991Z,-1.08
2024-01-12T15:41:35.815Z,-1.09
2024-01-12T15:46:39.492Z,-1.06
2024-01-12T15:51:47.178Z,-1.03
2024-01-12T15:56:50.872Z,-1.02
2024-01-12T16:01:54.912Z,-1.00
2024-01-12T16:07:00.912Z,-1.01
2024-01-12T16:12:04.298Z,-0.99
2024-01-12T16:17:07.308Z,-1.00
2024-01-12T16:22:12.663Z,-0.98
2024-01-12T16:27:17.464Z,-1.02
2024-01-12T16:32:20.388Z,-1.03
2024-01-12T16:37:26.617Z,-1.01
2024-01-12T16:42:30.221Z,-1.01
2024-01-12T16:47:34.184Z,-1.00
2024-01-12T16:52:42.777Z,-1.01
2024-01-12T16:57:47.470Z,-1.03
2024-01-12T17:02:50.502Z,-0.99
2024-01-12T17:07:55.220Z,-0.98
2024-01-12T17:12:58.118Z,-0.96
2024-01-12T17:18:01.508Z,-0.93
2024-01-12T17:23:06.172Z,-0.91
2024-01-12T17:28:09.126Z,-0.90
2024-01-12T17:33:12.333Z,-0.86
2024-01-12T17:38:17.409Z,-0.86
2024-01-12T17:43:21.645Z,-0.85
2024-01-12T17:48:24.752Z,-0.89
2024-01-12T17:53:29.463Z,-0.86
2024-01-12T17:58:33.454Z,-0.85
2024-01-12T18:03:36.617Z,-0.85
2024-01-12T18:08:41.813Z,-0.85
2024-01-12T18:13:44.814Z,-0.81
2024-01-12T18:18:48.820Z,-0.87
2024-01-12T18:23:53.722Z,-0.83
2024-01-12T18:28:56.825Z,-0.82
2024-01-12T18:34:00.483Z,-0.82
2024-01-12T18:39:05.335Z,-0.80
2024-01-12T18:44:09.123Z,-0.82
2024-01-12T18:49:13.384Z,-0.81
2024-01-12T18:54:19.494Z,-0.81
2024-01-12T18:59:23.257Z,-0.81
2024-01-12T19:04:26.225Z,-0.82
2024-01-12T19:09:30.571Z,-0.81
2024-01-12T19:14:33.503Z,-0.82
2024-01-12T19:19:39.829Z,-0.82
2024-01-12T19:24:46.098Z,-0.81
2024-01-12T19:29:49.826Z,-0.83
2024-01-12T19:34:57.516Z,-0.83
2024-01-12T19:40:01.829Z,-0.81
2024-01-12T19:45:07.813Z,-0.81
2024-01-12T19:50:11.440Z,-0.82
2024-01-12T19:55:16.131Z,-0.81
2024-01-12T20:00:19.943Z,-0.78
2024-01-12T20:05:23.055Z,-0.75
2024-01-12T20:10:27.283Z,-0.72
2024-01-12T20:15:31.677Z,-0.70
2024-01-12T20:20:34.787Z,-0.69
2024-01-12T20:25:39.096Z,-0.66
2024-01-12T20:30:42.145Z,-0.64
2024-01-12T20:35:45.770Z,-0.63
2024-01-12T20:40:50.143Z,-0.61
2024-01-12T20:45:54.270Z,-0.59
2024-01-12T20:50:58.389Z,-0.58
2024-01-12T20:56:06.110Z,-0.58
2024-01-12T21:01:10.614Z,-0.55
2024-01-12T21:06:14.455Z,-0.50
2024-01-12T21:11:20.245Z,-0.54
2024-01-12T21:16:23.359Z,-0.49
2024-01-12T21:21:27.797Z,-0.48
2024-01-12T21:26:32.159Z,-0.50
2024-01-12T21:31:37.637Z,-0.49
2024-01-12T21:36:40.988Z,-0.46
2024-01-12T21:41:46.315Z,-0.45
2024-01-12T21:46:49.196Z,-0.46
2024-01-12T21:51:53.243Z,-0.45
2024-01-12T21:56:58.276Z,-0.48
2024-01-12T22:02:01.312Z,-0.46
2024-01-12T22:07:04.739Z,-0.47
2024-01-12T22:12:10.268Z,-0.45
2024-01-12T22:17:14.107Z,-0.49
2024-01-12T22:22:17.887Z,-0.45
2024-01-12T22:27:23.090Z,-0.44
2024-01-12T22:32:26.060Z,-0.48
2024-01-12T22:37:30.116Z,-0.53
2024-01-12T22:42:34.496Z,-0.45
2024-01-12T22:47:39.117Z,-0.45
2024-01-12T22:52:43.074Z,-0.46
2024-01-12T22:57:47.765Z,-0.47
2024-01-12T23:02:50.882Z,-0.46
2024-01-12T23:07:56.217Z,-0.43
2024-01-12T23:13:00.526Z,-0.44
2024-01-12T23:18:04.741Z,-0.48
2024-01-12T23:23:07.734Z,-0.45
2024-01-12T23:28:12.104Z,-0.47
2024-01-12T23:33:16.889Z,-0.47
2024-01-12T23:38:31.271Z,-0.47
2024-01-12T23:43:42.757Z,-0.49
2024-01-12T23:48:45.762Z,-0.45
2024-01-12T23:53:50.538Z,-0.47
2024-01-12T23:58:55.254Z,-0.46
